createdAt,value
2022-10-01T00:02:07.683Z,2.70
2022-10-01T00:04:35.931Z,2.28
2022-10-01T00:07:04.884Z,2.63
2022-10-01T00:09:32.650Z,2.45
2022-10-01T00:12:01.587Z,2.90
2022-10-01T00:14:29.421Z,3.05
2022-10-01T00:16:56.959Z,2.80
2022-10-01T00:19:24.484Z,3.08
2022-10-01T00:21:51.977Z,3.00
2022-10-01T00:24:19.691Z,3.60
2022-10-01T00:26:47.562Z,3.40
2022-10-01T00:31:44.053Z,3.47
2022-10-01T00:34:13.029Z,3.40
2022-10-01T00:36:40.963Z,3.50
2022-10-01T00:41:36.006Z,3.00
2022-10-01T00:44:05.208Z,3.10
2022-10-01T00:46:40.026Z,3.78
2022-10-01T00:49:10.264Z,3.15
2022-10-01T00:51:39.652Z,2.70
2022-10-01T00:54:09.556Z,3.00
2022-10-01T00:56:38.109Z,2.67
2022-10-01T00:59:05.982Z,3.00
2022-10-01T01:04:01.099Z,2.70
2022-10-01T01:06:30.073Z,3.13
2022-10-01T01:08:57.474Z,3.33
2022-10-01T01:11:29.478Z,3.28
2022-10-01T01:13:58.774Z,3.70
2022-10-01T01:16:29.109Z,3.83
2022-10-01T01:19:00.199Z,3.78
2022-10-01T01:21:31.382Z,3.50
2022-10-01T01:24:06.527Z,4.10
2022-10-01T01:26:37.795Z,3.95
2022-10-01T01:29:09.731Z,4.47
2022-10-01T01:31:39.296Z,4.50
2022-10-01T01:34:08.799Z,4.40
2022-10-01T01:36:38.038Z,4.72
2022-10-01T01:39:06.358Z,4.32
2022-10-01T01:41:36.556Z,4.15
2022-10-01T01:44:08.590Z,4.80
2022-10-01T01:46:39.238Z,4.57
2022-10-01T01:49:07.265Z,4.72
2022-10-01T01:51:37.446Z,4.43
2022-10-01T01:54:04.876Z,4.85
2022-10-01T01:56:34.240Z,4.10
2022-10-01T01:59:01.911Z,5.78
2022-10-01T02:01:34.237Z,5.22
2022-10-01T02:04:04.409Z,4.63
2022-10-01T02:06:35.763Z,4.95
2022-10-01T02:09:05.317Z,4.55
2022-10-01T02:11:36.860Z,4.72
2022-10-01T02:14:09.142Z,4.55
2022-10-01T02:16:44.420Z,4.30
2022-10-01T02:19:19.308Z,4.40
2022-10-01T02:21:52.004Z,5.03
2022-10-01T02:24:23.847Z,4.80
2022-10-01T02:26:51.653Z,4.03
2022-10-01T02:29:20.710Z,5.28
2022-10-01T02:31:49.429Z,4.28
2022-10-01T02:34:20.435Z,4.95
2022-10-01T02:36:49.610Z,4.28
2022-10-01T02:39:18.469Z,4.30
2022-10-01T02:41:47.133Z,4.70
2022-10-01T02:44:16.863Z,4.97
2022-10-01T02:46:46.803Z,4.38
2022-10-01T02:49:15.072Z,4.40
2022-10-01T02:51:47.421Z,4.13
2022-10-01T02:54:17.045Z,3.95
2022-10-01T02:57:01.937Z,4.53
2022-10-01T02:59:29.355Z,4.57
2022-10-01T03:01:56.868Z,4.47
2022-10-01T03:04:24.364Z,3.75
2022-10-01T03:06:53.107Z,4.40
2022-10-01T03:09:20.551Z,4.53
2022-10-01T03:11:47.965Z,4.30
2022-10-01T03:14:15.404Z,4.20
2022-10-01T03:16:42.780Z,4.07
2022-10-01T03:19:10.172Z,4.65
2022-10-01T03:21:37.571Z,4.10
2022-10-01T03:24:06.480Z,4.47
2022-10-01T03:26:33.957Z,4.30
2022-10-01T03:29:01.380Z,3.97
2022-10-01T03:31:28.829Z,3.95
2022-10-01T03:34:00.230Z,4.38
2022-10-01T03:36:27.684Z,4.20
2022-10-01T03:38:55.100Z,6.05
2022-10-01T03:41:24.069Z,4.97
2022-10-01T03:43:51.498Z,3.85
2022-10-01T03:46:19.001Z,4.05
2022-10-01T03:48:46.411Z,3.45
2022-10-01T03:51:16.672Z,3.78
2022-10-01T03:53:47.196Z,4.30
2022-10-01T03:56:14.671Z,3.25
2022-10-01T03:58:43.479Z,3.63
2022-10-01T04:01:10.892Z,4.15
2022-10-01T04:03:38.371Z,4.30
2022-10-01T04:06:05.845Z,3.97
2022-10-01T04:08:33.240Z,3.60
2022-10-01T04:11:00.879Z,4.20
2022-10-01T04:13:29.841Z,4.00
2022-10-01T04:15:58.612Z,3.85
2022-10-01T04:18:26.058Z,4.10
2022-10-01T04:20:53.472Z,3.63
2022-10-01T04:23:20.888Z,3.40
2022-10-01T04:25:48.300Z,3.47
2022-10-01T04:28:15.699Z,3.80
2022-10-01T04:30:43.923Z,2.53
2022-10-01T04:33:13.360Z,2.35
2022-10-01T04:35:40.937Z,5.05
2022-10-01T04:38:12.437Z,2.03
2022-10-01T04:40:39.889Z,2.35
2022-10-01T04:43:09.524Z,1.90
2022-10-01T04:45:36.978Z,1.73
2022-10-01T04:48:04.965Z,2.25
2022-10-01T04:53:00.949Z,1.40
2022-10-01T04:55:28.325Z,2.00
2022-10-01T04:57:55.735Z,1.60
2022-10-01T05:00:24.300Z,1.48
2022-10-01T05:02:51.706Z,1.75
2022-10-01T05:05:19.538Z,1.35
2022-10-01T05:07:47.314Z,1.45
2022-10-01T05:10:17.069Z,1.27
2022-10-01T05:12:46.153Z,1.63
2022-10-01T05:15:13.979Z,1.70
2022-10-01T05:17:41.355Z,1.48
2022-10-01T05:20:11.621Z,1.70
2022-10-01T05:22:39.024Z,1.40
2022-10-01T05:25:06.988Z,1.60
2022-10-01T05:30:05.222Z,1.48
2022-10-01T05:32:32.637Z,1.52
2022-10-01T05:35:00.021Z,1.58
2022-10-01T05:37:27.562Z,1.80
2022-10-01T05:39:54.945Z,1.10
2022-10-01T05:42:22.576Z,1.48
2022-10-01T05:44:50.007Z,1.77
2022-10-01T05:47:20.188Z,1.33
2022-10-01T05:49:47.653Z,1.50
2022-10-01T05:52:16.334Z,1.58
2022-10-01T05:54:43.727Z,1.63
2022-10-01T05:57:11.100Z,1.23
2022-10-01T05:59:38.540Z,1.60
2022-10-01T06:02:06.031Z,1.52
2022-10-01T06:04:40.319Z,1.55
2022-10-01T06:07:08.684Z,1.27
2022-10-01T06:09:36.161Z,1.92
2022-10-01T06:12:05.428Z,1.83
2022-10-01T06:14:32.800Z,1.80
2022-10-01T06:17:00.161Z,1.17
2022-10-01T06:19:27.592Z,1.30
2022-10-01T06:21:56.337Z,1.05
2022-10-01T06:24:23.728Z,1.00
2022-10-01T06:26:51.103Z,0.82
2022-10-01T06:29:20.890Z,1.05
2022-10-01T06:31:48.289Z,0.77
2022-10-01T06:34:15.691Z,0.90
2022-10-01T06:36:43.203Z,0.70
2022-10-01T06:39:11.909Z,0.90
2022-10-01T06:41:40.736Z,0.98
2022-10-01T06:44:11.412Z,0.75
2022-10-01T06:46:38.767Z,0.60
2022-10-01T06:49:06.127Z,0.80
2022-10-01T06:51:50.899Z,0.65
2022-10-01T06:54:19.636Z,0.90
2022-10-01T06:56:47.044Z,0.80
2022-10-01T06:59:14.419Z,0.90
2022-10-01T07:01:41.859Z,0.90
2022-10-01T07:04:09.302Z,0.50
2022-10-01T07:06:36.750Z,0.80
2022-10-01T07:09:04.148Z,0.70
2022-10-01T07:11:33.160Z,0.80
2022-10-01T07:14:01.415Z,0.93
2022-10-01T07:16:29.454Z,0.85
2022-10-01T07:18:56.946Z,0.93
2022-10-01T07:21:24.352Z,1.00
2022-10-01T07:23:51.712Z,1.20
2022-10-01T07:26:19.131Z,1.10
2022-10-01T07:28:47.849Z,1.25
2022-10-01T07:31:15.291Z,1.70
2022-10-01T07:33:42.756Z,2.03
2022-10-01T07:36:12.232Z,1.80
2022-10-01T07:38:39.606Z,1.67
2022-10-01T07:41:07.045Z,1.60
2022-10-01T07:43:34.509Z,1.60
2022-10-01T07:46:07.066Z,1.85
2022-10-01T07:48:34.532Z,1.85
2022-10-01T07:51:01.956Z,1.73
2022-10-01T07:53:29.336Z,1.70
2022-10-01T07:55:56.725Z,1.60
2022-10-01T07:58:24.428Z,2.05
2022-10-01T08:00:55.928Z,1.80
2022-10-01T08:03:24.950Z,1.58
2022-10-01T08:05:54.190Z,1.40
2022-10-01T08:08:21.585Z,1.75
2022-10-01T08:10:50.550Z,1.83
2022-10-01T08:13:18.583Z,1.40
2022-10-01T08:15:46.878Z,1.30
2022-10-01T08:18:14.533Z,1.50
2022-10-01T08:20:43.267Z,1.67
2022-10-01T08:23:11.493Z,1.55
2022-10-01T08:25:40.597Z,1.92
2022-10-01T08:28:08.333Z,1.80
2022-10-01T08:30:37.220Z,1.58
2022-10-01T08:33:04.744Z,1.73
2022-10-01T08:35:32.393Z,1.80
2022-10-01T08:38:03.635Z,1.88
2022-10-01T08:40:31.285Z,1.45
2022-10-01T08:43:00.670Z,1.80
2022-10-01T08:45:30.218Z,1.80
2022-10-01T08:48:02.148Z,1.85
2022-10-01T08:50:34.607Z,1.45
2022-10-01T08:53:04.676Z,1.13
2022-10-01T08:55:36.391Z,1.40
2022-10-01T08:58:05.043Z,1.63
2022-10-01T09:00:34.245Z,1.30
2022-10-01T09:03:05.188Z,2.20
2022-10-01T09:05:35.749Z,2.70
2022-10-01T09:08:15.166Z,2.15
2022-10-01T09:10:45.551Z,2.58
2022-10-01T09:13:26.526Z,2.85
2022-10-01T09:15:57.178Z,3.08
2022-10-01T09:18:28.375Z,3.45
2022-10-01T09:20:58.418Z,3.58
2022-10-01T09:23:29.628Z,3.50
2022-10-01T09:25:59.871Z,3.70
2022-10-01T09:28:29.298Z,3.60
2022-10-01T09:30:58.134Z,3.28
2022-10-01T09:33:30.523Z,3.40
2022-10-01T09:36:02.065Z,3.35
2022-10-01T09:38:33.052Z,3.58
2022-10-01T09:41:00.677Z,3.10
2022-10-01T09:43:29.515Z,3.22
2022-10-01T09:45:57.358Z,3.40
2022-10-01T09:48:28.563Z,3.33
2022-10-01T09:50:58.916Z,3.67
2022-10-01T09:53:31.480Z,4.03
2022-10-01T09:56:03.738Z,4.13
2022-10-01T09:58:31.864Z,4.28
2022-10-01T10:00:59.931Z,3.90
2022-10-01T10:03:30.578Z,3.85
2022-10-01T10:05:59.705Z,3.95
2022-10-01T10:08:29.012Z,3.80
2022-10-01T10:11:00.327Z,3.78
2022-10-01T10:13:35.120Z,3.20
2022-10-01T10:16:10.664Z,2.78
2022-10-01T10:18:39.363Z,2.97
2022-10-01T10:21:08.878Z,2.90
2022-10-01T10:23:36.275Z,2.95
2022-10-01T10:26:05.266Z,2.88
2022-10-01T10:28:44.124Z,2.83
2022-10-01T10:31:13.609Z,2.85
2022-10-01T10:33:46.169Z,3.28
2022-10-01T10:36:15.883Z,2.88
2022-10-01T10:38:47.398Z,2.20
2022-10-01T10:41:16.696Z,2.50
2022-10-01T10:43:45.598Z,2.40
2022-10-01T10:46:14.056Z,2.28
2022-10-01T10:48:44.380Z,1.70
2022-10-01T10:51:11.772Z,1.50
2022-10-01T10:53:43.861Z,1.40
2022-10-01T10:56:22.907Z,1.20
2022-10-01T10:58:53.684Z,1.05
2022-10-01T11:01:26.912Z,1.25
2022-10-01T11:03:56.238Z,0.90
2022-10-01T11:06:23.793Z,1.23
2022-10-01T11:09:00.419Z,1.25
2022-10-01T11:11:36.877Z,1.60
2022-10-01T11:14:18.068Z,1.92
2022-10-01T11:16:55.123Z,1.13
2022-10-01T11:19:33.323Z,1.25
2022-10-01T11:22:09.382Z,1.60
2022-10-01T11:24:43.447Z,1.55
2022-10-01T11:27:12.443Z,1.50
2022-10-01T11:29:46.932Z,1.80
2022-10-01T11:32:19.503Z,1.90
2022-10-01T11:35:01.625Z,1.98
2022-10-01T11:37:39.379Z,3.20
2022-10-01T11:42:36.061Z,2.22
2022-10-01T11:45:08.201Z,1.75
2022-10-01T11:47:39.143Z,2.35
2022-10-01T11:50:08.942Z,2.13
2022-10-01T11:52:37.977Z,1.98
2022-10-01T11:55:39.647Z,2.28
2022-10-01T11:58:29.817Z,2.10
2022-10-01T12:01:02.122Z,3.08
2022-10-01T12:03:31.075Z,2.38
2022-10-01T12:05:59.293Z,2.20
2022-10-01T12:08:28.610Z,2.33
2022-10-01T12:10:58.751Z,2.13
2022-10-01T12:13:28.159Z,2.17
2022-10-01T12:15:56.793Z,2.50
2022-10-01T12:18:28.790Z,4.20
2022-10-01T12:20:57.838Z,2.58
2022-10-01T12:23:28.313Z,3.25
2022-10-01T12:26:00.693Z,2.85
2022-10-01T12:28:31.085Z,2.80
2022-10-01T12:31:01.579Z,2.22
2022-10-01T12:33:38.680Z,1.83
2022-10-01T12:36:10.415Z,1.75
2022-10-01T12:38:47.756Z,1.73
2022-10-01T12:41:19.696Z,1.58
2022-10-01T12:43:54.734Z,1.83
2022-10-01T12:46:27.342Z,1.55
2022-10-01T12:49:01.359Z,1.33
2022-10-01T12:51:38.938Z,2.22
2022-10-01T12:54:14.061Z,2.13
2022-10-01T12:56:44.969Z,2.58
2022-10-01T12:59:20.000Z,2.45
2022-10-01T13:02:00.301Z,2.30
2022-10-01T13:04:43.218Z,2.50
2022-10-01T13:07:20.065Z,2.90
2022-10-01T13:09:49.716Z,3.00
2022-10-01T13:12:22.864Z,2.10
2022-10-01T13:14:52.710Z,2.40
2022-10-01T13:17:25.567Z,2.30
2022-10-01T13:19:58.766Z,2.60
2022-10-01T13:22:30.986Z,2.17
2022-10-01T13:25:01.772Z,2.78
2022-10-01T13:27:33.510Z,2.00
2022-10-01T13:30:02.756Z,3.47
2022-10-01T13:32:32.143Z,2.10
2022-10-01T13:35:03.439Z,2.58
2022-10-01T13:37:35.334Z,2.22
2022-10-01T13:40:03.403Z,2.28
2022-10-01T13:42:32.300Z,2.28
2022-10-01T13:45:00.475Z,2.60
2022-10-01T13:47:28.440Z,2.70
2022-10-01T13:49:57.532Z,2.40
2022-10-01T13:52:26.314Z,2.28
2022-10-01T13:54:55.129Z,2.58
2022-10-01T13:57:27.886Z,2.10
2022-10-01T13:59:59.359Z,1.95
2022-10-01T14:02:30.474Z,1.73
2022-10-01T14:05:03.669Z,1.90
2022-10-01T14:07:36.693Z,2.20
2022-10-01T14:10:04.248Z,2.40
2022-10-01T14:13:05.000Z,1.67
2022-10-01T14:15:57.061Z,2.72
2022-10-01T14:18:26.068Z,2.42
2022-10-01T14:20:55.700Z,2.47
2022-10-01T14:23:28.788Z,2.38
2022-10-01T14:25:59.640Z,2.22
2022-10-01T14:28:35.513Z,1.95
2022-10-01T14:31:06.796Z,2.00
2022-10-01T14:34:00.132Z,1.88
2022-10-01T14:36:32.389Z,2.20
2022-10-01T14:39:12.842Z,2.42
2022-10-01T14:41:40.460Z,2.60
2022-10-01T14:44:19.211Z,2.80
2022-10-01T14:46:46.925Z,2.67
2022-10-01T14:49:20.028Z,2.13
2022-10-01T14:51:50.934Z,2.15
2022-10-01T14:54:20.375Z,2.13
2022-10-01T14:56:48.083Z,1.90
2022-10-01T15:01:54.488Z,2.30
2022-10-01T15:04:22.517Z,2.75
2022-10-01T15:06:50.342Z,2.00
2022-10-01T15:11:48.867Z,1.70
2022-10-01T15:14:17.967Z,1.30
2022-10-01T15:16:45.610Z,2.15
2022-10-01T15:19:15.562Z,1.58
2022-10-01T15:21:48.112Z,2.10
2022-10-01T15:24:21.121Z,1.75
2022-10-01T15:26:50.988Z,1.60
2022-10-01T15:29:18.966Z,2.35
2022-10-01T15:31:47.326Z,2.03
2022-10-01T15:34:16.331Z,3.72
2022-10-01T15:36:43.948Z,2.60
2022-10-01T15:39:23.385Z,2.10
2022-10-01T15:41:53.136Z,1.35
2022-10-01T15:44:47.542Z,1.90
2022-10-01T15:47:24.774Z,1.98
2022-10-01T15:50:02.339Z,2.03
2022-10-01T15:52:48.700Z,2.63
2022-10-01T15:55:17.089Z,1.90
2022-10-01T15:57:46.442Z,1.92
2022-10-01T16:00:21.912Z,3.08
2022-10-01T16:02:49.656Z,2.53
2022-10-01T16:05:18.945Z,3.35
2022-10-01T16:07:47.928Z,2.15
2022-10-01T16:10:16.741Z,2.28
2022-10-01T16:12:46.576Z,2.20
2022-10-01T16:15:24.987Z,2.08
2022-10-01T16:17:55.857Z,2.03
2022-10-01T16:20:37.588Z,2.05
2022-10-01T16:23:19.864Z,2.60
2022-10-01T16:25:47.405Z,2.33
2022-10-01T16:28:24.099Z,2.15
2022-10-01T16:30:51.977Z,2.30
2022-10-01T16:33:22.541Z,2.88
2022-10-01T16:35:49.936Z,2.53
2022-10-01T16:38:17.339Z,2.53
2022-10-01T16:40:47.680Z,3.15
2022-10-01T16:43:17.055Z,2.50
2022-10-01T16:45:46.084Z,2.58
2022-10-01T16:48:15.501Z,2.92
2022-10-01T16:50:43.410Z,2.33
2022-10-01T16:55:38.204Z,2.42
2022-10-01T16:58:06.754Z,2.80
2022-10-01T17:00:35.628Z,2.95
2022-10-01T17:03:05.390Z,2.90
2022-10-01T17:05:33.900Z,2.40
2022-10-01T17:08:03.283Z,3.30
2022-10-01T17:10:31.748Z,2.03
2022-10-01T17:12:59.597Z,2.33
2022-10-01T17:17:55.301Z,2.55
2022-10-01T17:20:24.920Z,2.40
2022-10-01T17:22:52.786Z,2.30
2022-10-01T17:27:47.849Z,2.55
2022-10-01T17:32:43.529Z,2.85
2022-10-01T17:35:11.323Z,3.22
2022-10-01T17:37:40.363Z,2.17
2022-10-01T17:40:08.565Z,2.47
2022-10-01T17:42:36.179Z,3.15
2022-10-01T17:45:05.913Z,2.78
2022-10-01T17:47:33.468Z,2.80
2022-10-01T17:50:02.656Z,2.42
2022-10-01T17:52:32.034Z,3.20
2022-10-01T17:55:00.736Z,2.97
2022-10-01T17:57:28.156Z,3.50
2022-10-01T17:59:55.531Z,2.80
2022-10-01T18:02:41.160Z,3.50
2022-10-01T18:05:12.028Z,3.40
2022-10-01T18:07:39.507Z,3.47
2022-10-01T18:10:10.057Z,3.50
2022-10-01T18:12:37.481Z,3.63
2022-10-01T18:15:05.443Z,4.00
2022-10-01T18:20:00.083Z,4.60
2022-10-01T18:22:27.644Z,4.20
2022-10-01T18:24:55.126Z,3.65
2022-10-01T18:27:23.900Z,3.95
2022-10-01T18:29:51.363Z,4.53
2022-10-01T18:32:20.260Z,4.43
2022-10-01T18:34:50.192Z,4.68
2022-10-01T18:37:23.421Z,4.40
2022-10-01T18:39:54.166Z,3.85
2022-10-01T18:42:24.266Z,4.00
2022-10-01T18:44:54.162Z,3.00
2022-10-01T18:47:26.202Z,6.38
2022-10-01T18:49:58.448Z,4.10
2022-10-01T18:52:30.689Z,3.80
2022-10-01T18:55:06.068Z,4.05
2022-10-01T18:57:40.323Z,4.53
2022-10-01T19:00:13.655Z,3.78
2022-10-01T19:02:50.422Z,3.45
2022-10-01T19:05:30.172Z,3.83
2022-10-01T19:08:04.197Z,5.18
2022-10-01T19:10:34.575Z,4.45
2022-10-01T19:13:06.466Z,4.68
2022-10-01T19:15:41.259Z,4.07
2022-10-01T19:18:18.226Z,6.82
2022-10-01T19:20:49.629Z,4.30
2022-10-01T19:23:25.830Z,4.90
2022-10-01T19:25:55.184Z,5.38
2022-10-01T19:28:29.419Z,4.43
2022-10-01T19:31:04.577Z,4.53
2022-10-01T19:33:33.404Z,4.35
2022-10-01T19:36:01.400Z,5.40
2022-10-01T19:38:33.493Z,4.65
2022-10-01T19:41:02.676Z,4.22
2022-10-01T19:43:32.554Z,4.03
2022-10-01T19:46:05.458Z,4.60
2022-10-01T19:48:39.440Z,4.00
2022-10-01T19:51:08.277Z,5.00
2022-10-01T19:53:38.044Z,3.85
2022-10-01T19:56:06.557Z,3.95
2022-10-01T19:58:34.333Z,4.28
2022-10-01T20:01:04.092Z,4.25
2022-10-01T20:03:35.236Z,4.47
2022-10-01T20:06:04.483Z,3.53
2022-10-01T20:08:35.062Z,4.80
2022-10-01T20:11:04.578Z,5.35
2022-10-01T20:13:37.124Z,4.80
2022-10-01T20:16:09.857Z,4.82
2022-10-01T20:18:41.937Z,4.22
2022-10-01T20:21:15.905Z,4.85
2022-10-01T20:23:46.719Z,3.88
2022-10-01T20:26:21.679Z,4.70
2022-10-01T20:28:54.466Z,4.10
2022-10-01T20:31:25.732Z,4.35
2022-10-01T20:33:57.822Z,4.15
2022-10-01T20:36:31.739Z,3.42
2022-10-01T20:39:05.473Z,4.50
2022-10-01T20:41:42.579Z,4.18
2022-10-01T20:44:12.357Z,3.97
2022-10-01T20:46:44.283Z,4.10
2022-10-01T20:49:16.467Z,4.15
2022-10-01T20:51:47.797Z,4.03
2022-10-01T20:54:19.151Z,4.82
2022-10-01T20:56:48.488Z,5.75
2022-10-01T20:59:19.150Z,5.97
2022-10-01T21:01:54.078Z,5.55
2022-10-01T21:04:26.185Z,5.43
2022-10-01T21:06:57.389Z,4.53
2022-10-01T21:09:27.790Z,5.93
2022-10-01T21:11:56.808Z,6.53
2022-10-01T21:14:26.267Z,5.30
2022-10-01T21:17:14.132Z,5.13
2022-10-01T21:19:47.692Z,5.45
2022-10-01T21:22:21.740Z,5.78
2022-10-01T21:24:57.437Z,6.57
2022-10-01T21:27:34.835Z,4.28
2022-10-01T21:30:08.367Z,5.03
2022-10-01T21:32:58.892Z,6.80
2022-10-01T21:35:33.480Z,5.30
2022-10-01T21:38:10.365Z,4.97
2022-10-01T21:40:43.239Z,4.53
2022-10-01T21:43:15.039Z,4.43
2022-10-01T21:45:45.889Z,4.60
2022-10-01T21:48:20.789Z,5.45
2022-10-01T21:50:53.374Z,3.85
2022-10-01T21:53:47.337Z,5.22
2022-10-01T21:56:30.400Z,4.78
2022-10-01T21:59:05.335Z,4.60
2022-10-01T22:01:39.830Z,6.85
2022-10-01T22:04:14.436Z,4.70
2022-10-01T22:06:44.942Z,5.03
2022-10-01T22:09:14.324Z,5.85
2022-10-01T22:11:46.983Z,5.85
2022-10-01T22:14:16.291Z,4.53
2022-10-01T22:16:52.880Z,4.53
2022-10-01T22:19:23.891Z,5.38
2022-10-01T22:21:53.948Z,5.88
2022-10-01T22:24:24.763Z,5.22
2022-10-01T22:26:55.225Z,6.00
2022-10-01T22:29:25.941Z,6.35
2022-10-01T22:31:56.933Z,5.22
2022-10-01T22:34:27.884Z,6.28
2022-10-01T22:36:56.752Z,5.95
2022-10-01T22:39:27.067Z,5.55
2022-10-01T22:41:59.046Z,7.00
2022-10-01T22:44:28.429Z,7.57
2022-10-01T22:47:11.867Z,6.53
2022-10-01T22:49:46.143Z,5.53
2022-10-01T22:52:19.500Z,5.57
2022-10-01T22:54:52.808Z,6.03
2022-10-01T22:57:31.591Z,5.85
2022-10-01T23:00:04.028Z,6.68
2022-10-01T23:02:34.276Z,5.03
2022-10-01T23:05:07.059Z,4.30
2022-10-01T23:07:39.749Z,5.40
2022-10-01T23:10:10.144Z,4.20
2022-10-01T23:12:42.333Z,5.53
2022-10-01T23:15:17.354Z,3.88
2022-10-01T23:17:47.516Z,4.05
2022-10-01T23:20:21.711Z,4.72
2022-10-01T23:22:56.639Z,4.18
2022-10-01T23:25:29.204Z,3.88
2022-10-01T23:28:06.447Z,3.53
2022-10-01T23:30:39.990Z,6.57
2022-10-01T23:33:21.999Z,3.33
2022-10-01T23:35:56.067Z,4.53
2022-10-01T23:38:37.394Z,3.92
2022-10-01T23:41:09.780Z,6.72
2022-10-01T23:43:39.008Z,4.43
2022-10-01T23:46:08.287Z,4.28
2022-10-01T23:48:38.563Z,4.88
2022-10-01T23:51:10.788Z,4.43
2022-10-01T23:53:42.016Z,4.85
2022-10-01T23:56:29.265Z,4.57
2022-10-01T23:58:59.431Z,4.78
